Time;durP1;ratioP1;P1;durP2;ratioP2;P2;SDS_P1;SDS_P2;PMS_P1;PMS_P2;Temp;Humidity;BMP_temperature;BMP_pressure;BME280_temperature;BME280_humidity;BME280_pressure;Samples;Min_cycle;Max_cycle;Signal;HPM_P1;HPM_P2
2021/04/18 03:21:27;;;;;;;;;;;;;;;;;;;;;
2021/04/18 07:28:02;;;;;;;3.58;1.80;;;10.30;61.10;;;;;;2352481;56;20984;-82
2021/04/18 07:31:05;;;;;;;;;;;;;;;;;;;;;
2021/04/18 07:36:20;;;;;;;6.37;3.05;;;11.20;61.90;;;;;;2315490;56;20380;-82
2021/04/18 07:39:32;;;;;;;4.12;2.55;;;11.20;62.20;;;;;;2331930;56;20988;-82
2021/04/18 07:46:37;;;;;;;4.82;3.08;;;11.50;62.30;;;;;;2310376;56;20988;-81
2021/04/18 07:49:49;;;;;;;;;;;;;;;;;;;;;
2021/04/18 07:56:26;;;;;;;6.47;3.33;;;11.80;63.10;;;;;;2185261;57;21044;-81
2021/04/18 07:59:25;;;;;;;5.60;3.45;;;11.90;63.30;;;;;;2420359;55;20981;-81
2021/04/18 08:06:50;;;;;;;5.62;3.50;;;12.10;63.00;;;;;;2186101;56;20962;-81
2021/04/18 08:27:02;;;;;;;;;;;12.70;61.40;;;;;;2210093;56;21002;-82
2021/04/18 09:12:51;;;;;;;;;;;;;;;;;;;;;
2021/04/18 09:15:54;;;;;;;5.43;2.92;;;14.00;61.50;;;;;;2299038;59;20948;-82
2021/04/18 09:19:51;;;;;;;;;;;;;;;;;;;;;
2021/04/18 10:40:29;;;;;;;4.68;2.83;;;14.60;60.40;;;;;;2219553;56;21112;-81
2021/04/18 10:43:52;;;;;;;5.57;2.75;;;15.30;60.70;;;;;;2424689;56;21083;-82
2021/04/18 10:49:48;;;;;;;6.10;3.47;;;15.40;60.80;;;;;;2209283;56;20988;-80
2021/04/18 10:52:15;;;;;;;5.50;3.67;;;15.40;58.90;;;;;;2381743;56;21017;-82
2021/04/18 10:55:28;;;;;;;6.12;3.81;;;15.50;59.60;;;;;;1883305;58;20980750;-81
2021/04/18 10:59:17;;;;;;;6.40;3.50;;;15.60;58.40;;;;;;2316464;53;23600;-68
2021/04/18 11:01:43;;;;;;;7.82;3.75;;;15.50;58.90;;;;;;2475295;54;27101;-72
2021/04/18 11:04:11;;;;;;;10.02;3.95;;;15.50;58.70;;;;;;2284688;54;21748;-70
2021/04/18 11:06:38;;;;;;;6.03;3.55;;;15.50;58.50;;;;;;2307351;53;20963;-69
2021/04/18 11:09:05;;;;;;;7.90;3.42;;;15.50;58.50;;;;;;2315501;54;21032;-71
2021/04/18 11:11:31;;;;;;;6.62;4.20;;;15.60;58.40;;;;;;2315546;54;20942;-70
2021/04/18 11:13:58;;;;;;;6.75;4.25;;;15.60;58.10;;;;;;2340956;53;21046;-72
2021/04/18 11:16:24;;;;;;;8.13;3.75;;;15.50;57.70;;;;;;2344090;53;20911;-70
2021/04/18 11:18:52;;;;;;;6.62;4.00;;;15.50;57.70;;;;;;2339682;53;21078;-67
2021/04/18 11:21:24;;;;;;;6.62;4.12;;;15.50;57.60;;;;;;2586309;53;21018;-72
2021/04/18 11:23:52;;;;;;;7.53;3.97;;;15.50;57.00;;;;;;2340054;53;20993;-68
2021/04/18 11:26:18;;;;;;;7.72;4.65;;;15.40;57.20;;;;;;2587074;53;20942;-69
2021/04/18 11:28:47;;;;;;;6.22;4.18;;;15.40;57.10;;;;;;2340275;54;21039;-68
2021/04/18 11:31:14;;;;;;;8.52;4.65;;;15.30;57.00;;;;;;2340295;54;21490;-70
2021/04/18 11:33:46;;;;;;;8.45;4.93;;;15.30;57.10;;;;;;2341348;54;20933;-67
2021/04/18 11:36:21;;;;;;;7.45;4.32;;;15.30;56.90;;;;;;2344504;53;21027;-71
2021/04/18 11:38:48;;;;;;;7.80;4.03;;;15.30;56.80;;;;;;2326639;53;21874;-68
2021/04/18 11:41:14;;;;;;;7.22;4.37;;;15.30;57.50;;;;;;2422943;53;20952;-68
2021/04/18 11:43:40;;;;;;;8.02;4.68;;;15.30;57.50;;;;;;2321050;53;20949;-70
2021/04/18 11:46:07;;;;;;;8.32;4.75;;;15.30;57.60;;;;;;2340954;54;20927;-70
2021/04/18 11:48:35;;;;;;;8.35;4.50;;;15.40;57.80;;;;;;2347662;53;21010;-70
2021/04/18 11:51:02;;;;;;;8.40;4.50;;;15.50;57.90;;;;;;2321591;54;20930;-70
2021/04/18 11:53:28;;;;;;;9.98;4.65;;;15.60;58.20;;;;;;2344009;53;20935;-68
2021/04/18 11:55:54;;;;;;;9.45;4.90;;;15.60;58.10;;;;;;2340079;53;20961;-71
2021/04/18 11:58:21;;;;;;;8.00;4.53;;;15.70;58.00;;;;;;2344161;54;21010;-70
2021/04/18 12:00:50;;;;;;;8.85;4.75;;;15.80;57.90;;;;;;2442145;53;20948;-70
2021/04/18 12:03:17;;;;;;;7.60;4.78;;;15.90;57.80;;;;;;2343833;53;20954;-70
2021/04/18 12:05:44;;;;;;;9.25;5.00;;;16.00;57.80;;;;;;2340176;53;21026;-67
2021/04/18 12:08:16;;;;;;;9.63;6.45;;;16.10;57.60;;;;;;2343147;53;20951;-68
2021/04/18 12:10:42;;;;;;;8.80;4.75;;;16.20;57.30;;;;;;2339162;54;21014;-69
2021/04/18 12:13:09;;;;;;;11.27;5.90;;;16.20;57.00;;;;;;2339492;54;21286;-68
2021/04/18 12:15:35;;;;;;;10.45;6.45;;;16.20;56.70;;;;;;2339305;54;21509;-67
2021/04/18 12:18:01;;;;;;;13.43;6.32;;;16.30;56.50;;;;;;2339272;54;21065;-68
2021/04/18 12:20:28;;;;;;;9.00;5.00;;;16.30;56.40;;;;;;2342242;54;21108;-68
2021/04/18 12:22:57;;;;;;;9.27;4.53;;;16.30;56.10;;;;;;2334231;53;21062;-68
2021/04/18 12:25:23;;;;;;;9.70;4.95;;;16.30;55.80;;;;;;2325691;53;20939;-72
2021/04/18 12:27:50;;;;;;;8.82;4.70;;;16.30;55.90;;;;;;2339333;54;20949;-68
2021/04/18 12:30:17;;;;;;;8.73;5.12;;;16.30;55.70;;;;;;2339096;53;20973;-71
2021/04/18 12:32:46;;;;;;;7.82;4.45;;;16.30;55.50;;;;;;2342933;53;21565;-68
2021/04/18 12:35:15;;;;;;;9.07;4.80;;;16.30;55.60;;;;;;2330419;53;20930;-70
2021/04/18 12:37:45;;;;;;;7.40;4.05;;;16.30;55.60;;;;;;2415413;53;20986;-68
2021/04/18 12:40:12;;;;;;;9.13;4.62;;;16.30;55.60;;;;;;2339677;54;21462;-67
2021/04/18 12:42:39;;;;;;;9.20;4.87;;;16.30;55.70;;;;;;2507102;53;20953;-68
2021/04/18 12:45:06;;;;;;;7.97;4.72;;;16.30;55.60;;;;;;2585285;53;21811;-69
2021/04/18 12:47:32;;;;;;;7.68;4.43;;;16.30;55.30;;;;;;2329942;53;20930;-68
2021/04/18 12:49:59;;;;;;;6.80;4.15;;;16.30;55.20;;;;;;2343437;53;21083;-68
2021/04/18 12:52:25;;;;;;;7.32;4.25;;;16.30;55.20;;;;;;2326531;53;21466;-69
2021/04/18 12:54:52;;;;;;;7.20;4.60;;;16.30;55.20;;;;;;2339137;53;20949;-71
2021/04/18 12:57:21;;;;;;;8.20;4.12;;;16.30;55.10;;;;;;2342092;53;20959;-67
2021/04/18 12:59:53;;;;;;;8.70;3.92;;;16.30;54.80;;;;;;2339391;54;20953;-67
2021/04/18 13:02:25;;;;;;;8.82;4.50;;;16.30;54.80;;;;;;2339895;54;21116;-69
2021/04/18 13:04:58;;;;;;;6.20;3.97;;;16.30;54.70;;;;;;2343676;54;21029;-67
2021/04/18 13:07:30;;;;;;;;;;;16.30;55.10;;;;;;2342107;53;21030;-67
2021/04/18 13:09:57;;;;;;;7.22;4.05;;;16.30;54.10;;;;;;2344554;53;20439;-67
2021/04/18 13:12:23;;;;;;;6.43;4.05;;;16.30;55.30;;;;;;2331677;53;21005;-66
2021/04/18 13:14:50;;;;;;;8.23;3.97;;;16.30;55.30;;;;;;2373185;53;20995;-68
2021/04/18 13:17:16;;;;;;;7.70;4.10;;;16.40;55.40;;;;;;2333494;53;21022;-69
2021/04/18 13:19:42;;;;;;;8.68;4.80;;;16.40;55.40;;;;;;2328825;53;21440;-69
2021/04/18 13:22:09;;;;;;;10.38;5.18;;;16.40;55.40;;;;;;2344048;53;20935;-68
2021/04/18 13:24:35;;;;;;;7.53;4.00;;;16.50;55.50;;;;;;2346564;53;20931;-67
2021/04/18 13:27:01;;;;;;;7.97;4.82;;;16.50;55.50;;;;;;2344400;53;20975;-69
2021/04/18 13:29:28;;;;;;;9.43;4.45;;;16.60;55.70;;;;;;2344219;54;20943;-68
2021/04/18 13:31:55;;;;;;;7.28;4.43;;;16.70;55.70;;;;;;2344365;53;21007;-69
2021/04/18 13:34:21;;;;;;;6.87;4.57;;;16.80;55.70;;;;;;2344472;54;20931;-69
2021/04/18 13:36:47;;;;;;;8.82;5.05;;;16.80;55.70;;;;;;2350226;53;20977;-68
2021/04/18 13:39:15;;;;;;;10.52;4.60;;;17.00;56.00;;;;;;2571920;52;20925;-68
2021/04/18 13:41:42;;;;;;;7.03;4.32;;;17.00;56.00;;;;;;2343898;53;20959;-69
2021/04/18 13:44:08;;;;;;;8.27;4.97;;;17.20;56.00;;;;;;2352532;53;21017;-68
2021/04/18 13:46:34;;;;;;;8.73;5.07;;;17.30;55.70;;;;;;2326804;53;20920;-67
2021/04/18 13:49:00;;;;;;;9.20;4.62;;;17.40;55.50;;;;;;2405698;53;20992;-69
2021/04/18 13:51:27;;;;;;;9.52;5.18;;;17.40;55.10;;;;;;2344491;54;20966;-68
2021/04/18 13:53:54;;;;;;;8.48;4.65;;;17.50;54.90;;;;;;2344352;54;20951;-67
2021/04/18 13:56:22;;;;;;;8.10;4.50;;;17.50;54.60;;;;;;2345164;53;21014;-68
2021/04/18 13:58:51;;;;;;;10.00;4.70;;;17.60;54.60;;;;;;2347702;53;20948;-67
2021/04/18 14:01:18;;;;;;;7.43;4.22;;;17.60;54.30;;;;;;2343922;53;21042;-68
2021/04/18 14:03:45;;;;;;;8.65;4.15;;;17.60;54.20;;;;;;2344711;54;20924;-69
2021/04/18 14:06:12;;;;;;;7.15;4.28;;;17.60;54.00;;;;;;2348078;53;20941;-67
2021/04/18 14:08:39;;;;;;;6.80;4.10;;;17.50;54.00;;;;;;2342328;53;20927;-69
2021/04/18 14:11:05;;;;;;;6.30;4.28;;;17.50;54.20;;;;;;2344691;53;20924;-69
2021/04/18 14:13:31;;;;;;;7.80;4.80;;;17.50;54.10;;;;;;2344245;54;20958;-68
2021/04/18 14:15:58;;;;;;;12.07;5.50;;;17.60;54.10;;;;;;2347373;53;21022;-68
2021/04/18 14:18:25;;;;;;;7.30;4.45;;;17.50;53.50;;;;;;2329404;53;20946;-68
2021/04/18 14:20:51;;;;;;;8.50;4.35;;;17.50;53.60;;;;;;2344734;53;20995;-69
2021/04/18 14:23:17;;;;;;;8.70;5.32;;;17.50;53.70;;;;;;2381160;53;20931;-67
2021/04/18 14:25:43;;;;;;;7.32;4.25;;;17.50;53.60;;;;;;2590914;53;20956;-67
2021/04/18 14:28:10;;;;;;;7.22;4.47;;;17.50;53.70;;;;;;2319145;54;20963;-69
2021/04/18 14:30:36;;;;;;;8.38;4.80;;;17.50;53.80;;;;;;2343600;53;20935;-67
2021/04/18 14:33:03;;;;;;;8.57;4.78;;;17.50;53.80;;;;;;2344533;53;20959;-67
2021/04/18 14:35:31;;;;;;;9.57;4.47;;;17.60;53.70;;;;;;2343234;53;20923;-67
2021/04/18 14:37:57;;;;;;;7.30;4.12;;;17.60;53.80;;;;;;2347696;53;20940;-72
2021/04/18 14:40:24;;;;;;;8.05;4.40;;;17.60;53.80;;;;;;2385060;53;20923;-71
2021/04/18 14:42:50;;;;;;;8.20;4.97;;;17.60;53.70;;;;;;2589956;53;20944;-68
2021/04/18 14:45:17;;;;;;;7.05;4.50;;;17.60;53.50;;;;;;2331800;53;20987;-67
2021/04/18 14:47:46;;;;;;;6.37;4.03;;;17.60;53.50;;;;;;2344082;53;21807;-70
2021/04/18 14:50:13;;;;;;;7.95;4.55;;;17.60;53.40;;;;;;2324831;54;20927;-72
2021/04/18 14:52:39;;;;;;;8.70;4.57;;;17.60;53.30;;;;;;2591027;53;20949;-69
2021/04/18 14:55:07;;;;;;;7.60;4.62;;;17.50;53.20;;;;;;2343155;53;20954;-72
2021/04/18 14:57:36;;;;;;;7.60;4.53;;;17.50;53.50;;;;;;2343758;53;20968;-68
2021/04/18 15:00:05;;;;;;;8.60;4.12;;;17.60;53.80;;;;;;2471493;53;20943;-69
2021/04/18 15:02:31;;;;;;;6.45;3.78;;;17.60;54.00;;;;;;2344686;53;21236;-70
2021/04/18 15:04:57;;;;;;;8.40;4.22;;;17.70;54.40;;;;;;2343711;54;20941;-72
2021/04/18 15:07:24;;;;;;;7.93;4.43;;;17.80;54.30;;;;;;2343986;54;20983;-68
2021/04/18 15:09:50;;;;;;;7.85;4.87;;;17.90;54.20;;;;;;2343924;54;20942;-70
2021/04/18 15:12:17;;;;;;;8.63;4.50;;;18.00;54.10;;;;;;2343665;54;20954;-68
2021/04/18 15:14:43;;;;;;;7.47;4.55;;;18.10;54.30;;;;;;2328824;54;20968;-68
2021/04/18 15:17:10;;;;;;;7.50;4.40;;;18.10;54.20;;;;;;2334688;53;20927;-70
2021/04/18 15:19:36;;;;;;;7.70;4.43;;;18.20;54.10;;;;;;2590541;53;21002;-69
2021/04/18 15:22:03;;;;;;;7.18;3.95;;;18.30;54.00;;;;;;2344170;53;20955;-72
2021/04/18 15:24:30;;;;;;;6.80;3.87;;;18.30;53.80;;;;;;2343554;54;20982;-71
2021/04/18 15:26:56;;;;;;;7.65;4.32;;;18.30;53.40;;;;;;2342354;53;21030;-71
2021/04/18 15:29:23;;;;;;;8.20;4.97;;;18.30;53.10;;;;;;2343203;53;21003;-71
2021/04/18 15:31:52;;;;;;;7.75;4.40;;;18.30;52.80;;;;;;2344974;53;20926;-68
2021/04/18 15:34:20;;;;;;;7.32;4.50;;;18.30;52.50;;;;;;2344155;54;20951;-68
2021/04/18 15:36:47;;;;;;;8.55;4.78;;;18.20;52.50;;;;;;2325179;54;20955;-69
2021/04/18 15:39:14;;;;;;;6.95;4.43;;;18.10;52.50;;;;;;2347540;53;21059;-70
2021/04/18 15:41:41;;;;;;;7.55;4.00;;;18.10;52.50;;;;;;2350779;53;20960;-70
2021/04/18 15:44:09;;;;;;;8.02;3.90;;;18.00;52.30;;;;;;2347584;53;20980;-69
2021/04/18 15:46:38;;;;;;;9.10;4.40;;;18.00;52.10;;;;;;2343397;53;20963;-70
2021/04/18 15:49:05;;;;;;;8.77;4.10;;;17.90;52.00;;;;;;2351975;53;21903;-69
2021/04/18 15:51:34;;;;;;;7.95;4.45;;;17.80;51.90;;;;;;2332088;53;20939;-69
2021/04/18 15:54:01;;;;;;;6.43;3.87;;;17.70;51.70;;;;;;2342560;53;21112;-68
2021/04/18 15:56:27;;;;;;;7.37;3.53;;;17.60;51.80;;;;;;2344679;53;20987;-71
2021/04/18 15:58:53;;;;;;;7.70;3.95;;;17.50;51.80;;;;;;2341252;53;20964;-68
2021/04/18 16:01:21;;;;;;;6.93;3.87;;;17.50;51.70;;;;;;2343693;53;20912;-67
2021/04/18 16:03:48;;;;;;;7.47;3.65;;;17.40;51.70;;;;;;2410537;53;20923;-70
2021/04/18 16:06:15;;;;;;;5.87;3.50;;;17.30;51.80;;;;;;2459928;53;20968;-67
2021/04/18 16:08:41;;;;;;;5.95;3.30;;;17.20;51.80;;;;;;2344206;53;20947;-69
2021/04/18 16:11:07;;;;;;;6.60;3.42;;;17.20;51.80;;;;;;2344389;53;20956;-69
2021/04/18 16:13:34;;;;;;;8.25;3.47;;;17.10;51.60;;;;;;2352138;53;21789;-67
2021/04/18 16:16:02;;;;;;;7.07;3.70;;;17.00;51.60;;;;;;2332326;53;20911;-67
2021/04/18 16:18:28;;;;;;;8.50;4.05;;;16.90;51.60;;;;;;2423728;53;21772;-67
2021/04/18 16:20:55;;;;;;;6.22;3.40;;;16.90;51.80;;;;;;2583713;52;21056;-67
2021/04/18 16:23:21;;;;;;;5.85;3.37;;;16.80;51.70;;;;;;2344886;53;20972;-67
2021/04/18 16:25:48;;;;;;;7.50;3.62;;;16.70;51.80;;;;;;2366917;52;21087;-68
2021/04/18 16:28:14;;;;;;;9.50;4.05;;;16.60;51.80;;;;;;2340103;53;20916;-67
2021/04/18 16:30:41;;;;;;;8.00;3.78;;;16.50;51.80;;;;;;2561324;53;21506;-68
2021/04/18 16:33:07;;;;;;;6.82;3.58;;;16.50;52.10;;;;;;2338482;53;20939;-68
2021/04/18 16:35:33;;;;;;;8.60;4.30;;;16.40;52.00;;;;;;2351485;53;21075;-67
2021/04/18 16:38:01;;;;;;;7.12;3.92;;;16.40;52.10;;;;;;2323573;53;21761;-67
2021/04/18 16:40:28;;;;;;;8.38;3.72;;;16.30;52.10;;;;;;2347901;53;21006;-67
2021/04/18 16:42:54;;;;;;;6.85;3.85;;;16.30;52.30;;;;;;2338354;53;21030;-69
2021/04/18 16:45:20;;;;;;;7.00;4.22;;;16.30;52.50;;;;;;2343853;53;21504;-68
2021/04/18 16:47:46;;;;;;;6.78;3.90;;;16.20;52.60;;;;;;2335192;53;20987;-68
2021/04/18 16:50:13;;;;;;;7.18;3.70;;;16.20;52.70;;;;;;2395780;53;21415;-69
2021/04/18 16:52:40;;;;;;;7.60;4.10;;;16.10;52.60;;;;;;2343815;53;20967;-70
2021/04/18 16:55:08;;;;;;;8.75;4.55;;;16.10;52.70;;;;;;2343945;53;21007;-67
2021/04/18 16:57:35;;;;;;;7.10;4.07;;;16.10;52.80;;;;;;2343920;53;20990;-67
2021/04/18 17:00:04;;;;;;;7.50;4.70;;;16.10;52.80;;;;;;2525506;53;20979;-71
2021/04/18 17:02:30;;;;;;;7.80;4.70;;;16.10;52.90;;;;;;2344084;53;21824;-68
2021/04/18 17:05:02;;;;;;;9.13;5.25;;;16.00;52.90;;;;;;2521948;53;20924;-68
2021/04/18 17:07:29;;;;;;;8.50;4.47;;;16.00;52.90;;;;;;2580294;53;21010;-68
2021/04/18 17:09:58;;;;;;;8.07;4.00;;;16.00;52.90;;;;;;2571658;53;21051;-67
2021/04/18 17:12:24;;;;;;;7.18;4.25;;;16.00;52.70;;;;;;2348457;53;20968;-67
2021/04/18 17:14:51;;;;;;;6.57;3.50;;;16.00;52.70;;;;;;2435529;53;20934;-66
2021/04/18 17:17:18;;;;;;;9.82;4.12;;;15.90;52.70;;;;;;2344096;53;20970;-68
2021/04/18 17:19:44;;;;;;;9.80;4.72;;;15.90;52.70;;;;;;2344137;54;20982;-66
2021/04/18 17:22:16;;;;;;;8.90;4.45;;;15.90;52.70;;;;;;2347879;53;21015;-69
2021/04/18 17:24:44;;;;;;;7.87;4.12;;;15.80;52.30;;;;;;2347606;53;20958;-67
2021/04/18 17:27:10;;;;;;;6.87;3.35;;;15.80;52.70;;;;;;2347264;53;20947;-68
2021/04/18 17:29:38;;;;;;;7.43;3.80;;;15.80;52.70;;;;;;2342312;53;20959;-67
2021/04/18 17:32:04;;;;;;;7.87;4.05;;;15.70;52.70;;;;;;2343938;53;21789;-68
2021/04/18 17:34:31;;;;;;;9.05;4.20;;;15.70;52.70;;;;;;2344204;53;20934;-67
2021/04/18 17:37:00;;;;;;;6.18;3.70;;;15.60;52.60;;;;;;2352729;53;20980;-67
2021/04/18 17:39:27;;;;;;;9.52;4.43;;;15.60;52.30;;;;;;2568565;53;21415;-67
2021/04/18 17:41:53;;;;;;;8.70;3.65;;;15.60;52.40;;;;;;2342754;53;20936;-67
2021/04/18 17:44:20;;;;;;;6.07;2.97;;;15.50;52.40;;;;;;2343456;53;20959;-68
2021/04/18 17:46:46;;;;;;;6.32;3.53;;;15.40;52.50;;;;;;2347577;53;20960;-67
2021/04/18 17:49:14;;;;;;;6.20;3.70;;;15.40;52.50;;;;;;2343896;53;20915;-67
2021/04/18 17:51:42;;;;;;;7.07;3.55;;;15.40;52.70;;;;;;2352007;53;20893;-67
2021/04/18 17:54:08;;;;;;;6.07;3.47;;;15.30;52.70;;;;;;2326517;53;20951;-68
2021/04/18 17:56:34;;;;;;;5.22;3.00;;;15.30;52.70;;;;;;2343775;54;20982;-67
2021/04/18 17:59:01;;;;;;;5.20;2.72;;;15.20;52.70;;;;;;2343729;54;20975;-67
2021/04/18 18:01:27;;;;;;;5.87;3.62;;;15.20;52.80;;;;;;2343856;54;20916;-68
2021/04/18 18:03:54;;;;;;;6.57;3.05;;;15.20;52.80;;;;;;2343919;54;20952;-68
2021/04/18 18:06:20;;;;;;;8.95;4.18;;;15.10;52.80;;;;;;2347819;53;21758;-68
2021/04/18 18:08:47;;;;;;;6.03;3.22;;;15.00;52.60;;;;;;2465122;53;20936;-68
2021/04/18 18:11:13;;;;;;;8.60;3.47;;;15.00;52.70;;;;;;2343677;53;20990;-69
2021/04/18 18:13:39;;;;;;;7.57;3.40;;;15.00;52.80;;;;;;2343983;54;20947;-68
2021/04/18 18:16:06;;;;;;;6.78;3.28;;;14.90;52.70;;;;;;2343802;53;20986;-67
2021/04/18 18:18:32;;;;;;;6.20;3.40;;;14.90;52.80;;;;;;2590594;53;20982;-67
2021/04/18 18:20:59;;;;;;;6.70;3.60;;;14.80;52.80;;;;;;2343826;53;21066;-68
2021/04/18 18:23:26;;;;;;;5.32;3.10;;;14.80;52.90;;;;;;2394822;53;21408;-67
2021/04/18 18:25:54;;;;;;;7.10;3.15;;;14.80;53.00;;;;;;2351652;53;20958;-69
2021/04/18 18:28:20;;;;;;;7.60;2.95;;;14.70;53.00;;;;;;2577102;53;21426;-67
2021/04/18 18:30:46;;;;;;;8.85;3.50;;;14.70;53.10;;;;;;2347195;53;20937;-68
2021/04/18 18:33:13;;;;;;;5.82;3.17;;;14.60;53.10;;;;;;2559147;53;20959;-68
2021/04/18 18:35:39;;;;;;;7.05;3.30;;;14.60;53.30;;;;;;2568948;53;20939;-69
2021/04/18 18:38:06;;;;;;;5.03;2.70;;;14.60;53.30;;;;;;2522650;53;20983;-70
2021/04/18 18:40:32;;;;;;;5.75;2.60;;;14.50;53.30;;;;;;2343408;53;20915;-69
2021/04/18 18:42:58;;;;;;;6.07;2.47;;;14.50;53.30;;;;;;2343730;54;20959;-69
2021/04/18 18:45:26;;;;;;;5.25;2.60;;;14.40;53.30;;;;;;2344276;54;21712;-70
2021/04/18 18:47:53;;;;;;;6.43;2.80;;;14.40;53.40;;;;;;2589402;52;21052;-69
2021/04/18 18:50:20;;;;;;;6.22;2.42;;;14.30;53.40;;;;;;2347191;53;20940;-71
2021/04/18 19:02:00;;;;;;;3.92;1.50;;;14.20;53.40;;;;;;2343351;54;21443;-71
2021/04/18 19:04:27;;;;;;;5.37;1.75;;;14.10;53.70;;;;;;2590384;53;21679;-70
2021/04/18 19:06:56;;;;;;;4.40;2.30;;;14.00;53.70;;;;;;2344216;53;21243;-69
2021/04/18 19:09:23;;;;;;;5.32;2.42;;;14.00;53.90;;;;;;2343842;54;20951;-70
2021/04/18 19:11:49;;;;;;;4.65;2.17;;;13.90;53.90;;;;;;2382216;53;20946;-69
2021/04/18 19:14:16;;;;;;;4.43;2.10;;;13.90;54.00;;;;;;2336046;53;20963;-68
2021/04/18 19:16:43;;;;;;;4.80;2.37;;;13.80;54.00;;;;;;2460259;53;21290;-68
2021/04/18 19:19:09;;;;;;;5.78;2.95;;;13.80;54.10;;;;;;2328691;53;20931;-66
2021/04/18 19:21:36;;;;;;;6.55;2.90;;;13.70;54.10;;;;;;2344625;53;21942;-68
2021/04/18 19:24:02;;;;;;;6.43;2.62;;;13.70;54.10;;;;;;2352471;53;20924;-70
2021/04/18 19:26:28;;;;;;;6.25;2.20;;;13.70;54.20;;;;;;2337947;54;20911;-66
2021/04/18 19:28:54;;;;;;;5.30;2.30;;;13.60;54.20;;;;;;2343853;54;20915;-70
2021/04/18 19:31:21;;;;;;;4.05;1.95;;;13.60;54.20;;;;;;2347181;53;20928;-68
2021/04/18 19:33:47;;;;;;;4.53;2.12;;;13.60;54.20;;;;;;2412612;53;21350;-69
2021/04/18 19:36:14;;;;;;;5.60;2.20;;;13.50;54.20;;;;;;2347899;53;21444;-67
2021/04/18 19:38:41;;;;;;;5.05;2.12;;;13.50;54.20;;;;;;2528074;53;21409;-69
2021/04/18 19:41:10;;;;;;;5.70;2.35;;;13.40;54.10;;;;;;2343809;53;21003;-67
2021/04/18 19:43:37;;;;;;;5.70;2.58;;;13.40;54.20;;;;;;2378994;53;20939;-69
2021/04/18 19:46:03;;;;;;;5.25;2.35;;;13.30;54.10;;;;;;2344285;54;21428;-67
2021/04/18 19:48:30;;;;;;;5.03;2.40;;;13.30;54.10;;;;;;2324824;54;21912;-69
2021/04/18 19:50:58;;;;;;;4.72;2.00;;;13.20;54.00;;;;;;2344326;53;21039;-68
2021/04/18 19:53:25;;;;;;;6.40;2.15;;;13.20;54.10;;;;;;2342816;54;20954;-69
2021/04/18 19:55:52;;;;;;;5.95;2.53;;;13.10;54.10;;;;;;2343907;54;21464;-69
2021/04/18 19:58:18;;;;;;;5.10;2.62;;;13.00;54.00;;;;;;2344155;53;20935;-70
2021/04/18 20:00:45;;;;;;;6.35;2.45;;;12.90;54.10;;;;;;2348268;53;20931;-68
2021/04/18 20:03:12;;;;;;;5.00;2.35;;;12.90;54.10;;;;;;2340472;53;21365;-67
2021/04/18 20:05:38;;;;;;;4.22;1.92;;;12.80;54.10;;;;;;2343692;53;20940;-68
2021/04/18 20:08:05;;;;;;;4.20;2.17;;;12.70;54.10;;;;;;2476926;53;20966;-70
2021/04/18 20:10:31;;;;;;;5.10;2.40;;;12.70;54.20;;;;;;2344428;53;20956;-66
2021/04/18 20:12:57;;;;;;;3.87;2.00;;;12.70;54.20;;;;;;2554378;53;21546;-66
2021/04/18 20:15:24;;;;;;;5.00;2.22;;;12.60;54.30;;;;;;2344692;54;20979;-66
2021/04/18 20:17:50;;;;;;;4.25;2.22;;;12.50;54.20;;;;;;2347659;53;20948;-70
2021/04/18 20:20:17;;;;;;;4.72;2.25;;;12.50;54.30;;;;;;2527231;53;20995;-66
2021/04/18 20:22:44;;;;;;;5.60;2.60;;;12.40;54.30;;;;;;2590531;53;20927;-65
2021/04/18 20:25:12;;;;;;;3.35;1.98;;;12.30;54.40;;;;;;2591291;53;20990;-69
2021/04/18 20:27:39;;;;;;;5.03;2.42;;;12.30;54.40;;;;;;2347515;53;21048;-71
2021/04/18 20:30:07;;;;;;;5.32;2.35;;;12.30;54.50;;;;;;2344204;54;20903;-67
2021/04/18 20:32:33;;;;;;;5.80;2.70;;;12.20;54.50;;;;;;2325005;54;20931;-68
2021/04/18 20:34:59;;;;;;;6.68;2.25;;;12.10;54.50;;;;;;2494571;53;20948;-69
2021/04/18 20:37:25;;;;;;;6.20;2.83;;;12.10;54.60;;;;;;2347915;53;21359;-68
2021/04/18 20:39:52;;;;;;;5.43;2.30;;;12.10;54.70;;;;;;2563922;53;21014;-67
2021/04/18 20:42:19;;;;;;;5.72;2.60;;;12.00;54.60;;;;;;2347571;53;21568;-69
2021/04/18 20:44:45;;;;;;;4.80;2.45;;;12.00;54.70;;;;;;2325463;53;21075;-66
2021/04/18 20:47:14;;;;;;;4.90;2.62;;;11.90;54.70;;;;;;2344217;54;20994;-67
2021/04/18 20:49:42;;;;;;;8.77;4.15;;;11.90;54.80;;;;;;2431356;53;21424;-69
2021/04/18 20:52:09;;;;;;;6.10;2.90;;;11.90;54.80;;;;;;2344442;54;20994;-69
2021/04/18 20:54:37;;;;;;;5.57;2.75;;;11.80;54.80;;;;;;2325776;54;20959;-69
2021/04/18 20:57:05;;;;;;;7.15;2.83;;;11.80;54.80;;;;;;2347733;53;20924;-68
2021/04/18 20:59:31;;;;;;;5.32;2.40;;;11.80;54.90;;;;;;2590600;53;21014;-68
2021/04/18 21:02:00;;;;;;;5.22;2.40;;;11.70;54.90;;;;;;2348201;54;20955;-67
2021/04/18 21:04:26;;;;;;;6.45;2.87;;;11.70;55.50;;;;;;2338383;53;21053;-66
2021/04/18 21:06:53;;;;;;;6.72;2.35;;;11.70;54.90;;;;;;2573665;53;20928;-68
2021/04/18 21:09:19;;;;;;;4.80;2.20;;;11.50;54.80;;;;;;2347434;53;20940;-68
2021/04/18 21:11:45;;;;;;;4.10;2.20;;;11.60;54.90;;;;;;2343893;53;21491;-66
2021/04/18 21:14:12;;;;;;;6.57;2.45;;;11.60;54.90;;;;;;2408950;53;20963;-67
2021/04/18 21:16:38;;;;;;;3.72;2.10;;;11.50;54.80;;;;;;2591111;53;20943;-68
2021/04/18 21:19:04;;;;;;;4.43;2.37;;;11.40;54.80;;;;;;2347808;53;21538;-68
2021/04/18 21:21:32;;;;;;;4.70;2.50;;;11.40;54.80;;;;;;2349452;53;21042;-67
2021/04/18 21:24:01;;;;;;;5.55;2.42;;;11.40;54.90;;;;;;2346261;57;21047;-68
2021/04/18 21:26:28;;;;;;;4.50;2.37;;;11.30;54.80;;;;;;2593228;53;22294;-66
2021/04/18 21:28:56;;;;;;;6.20;2.80;;;11.20;54.80;;;;;;2404941;53;20951;-67
2021/04/18 21:31:24;;;;;;;3.62;2.15;;;11.20;54.80;;;;;;2343943;53;21051;-65
2021/04/18 21:33:51;;;;;;;4.55;2.50;;;11.10;54.80;;;;;;2351556;53;21760;-68
2021/04/18 21:36:17;;;;;;;6.90;2.47;;;11.00;54.70;;;;;;2440411;53;21007;-66
2021/04/18 21:38:44;;;;;;;5.28;2.30;;;11.00;54.80;;;;;;2437192;53;20991;-66
2021/04/18 21:41:10;;;;;;;5.10;2.25;;;10.90;54.90;;;;;;2348549;53;21774;-67
2021/04/18 21:43:41;;;;;;;5.22;2.40;;;10.90;55.00;;;;;;2347608;53;20958;-65
2021/04/18 21:46:08;;;;;;;6.03;2.50;;;10.80;55.00;;;;;;2344562;53;21042;-66
2021/04/18 21:48:38;;;;;;;5.30;2.28;;;10.80;55.10;;;;;;2347859;53;20975;-68
2021/04/18 21:51:05;;;;;;;5.35;2.40;;;10.70;55.20;;;;;;2343787;54;21055;-67
2021/04/18 21:53:32;;;;;;;6.22;3.08;;;10.70;55.30;;;;;;2347409;53;20905;-66
2021/04/18 21:56:00;;;;;;;6.75;2.72;;;10.70;55.40;;;;;;2343929;53;20967;-67
2021/04/18 21:58:26;;;;;;;5.55;2.83;;;10.70;55.60;;;;;;2343859;53;20935;-66
2021/04/18 22:00:52;;;;;;;6.45;2.87;;;10.60;56.20;;;;;;2348890;53;20936;-69
2021/04/18 22:03:20;;;;;;;4.90;2.50;;;10.60;55.70;;;;;;2342627;53;21042;-68
2021/04/18 22:05:48;;;;;;;5.82;2.97;;;10.60;55.80;;;;;;2347736;53;20932;-66
2021/04/18 22:08:15;;;;;;;5.80;2.85;;;10.60;55.90;;;;;;2347869;54;21007;-67
2021/04/18 22:10:41;;;;;;;6.43;2.58;;;10.50;55.80;;;;;;2347990;53;21753;-67
2021/04/18 22:13:07;;;;;;;5.93;2.55;;;10.50;55.90;;;;;;2347807;53;20935;-68
2021/04/18 22:15:33;;;;;;;5.00;2.78;;;10.50;56.00;;;;;;2343629;53;20927;-69
2021/04/18 22:17:59;;;;;;;5.75;2.42;;;10.50;56.10;;;;;;2344419;54;20971;-69
2021/04/18 22:20:27;;;;;;;5.65;2.70;;;10.50;56.20;;;;;;2343894;53;20943;-66
2021/04/18 22:22:53;;;;;;;4.40;2.35;;;10.50;56.20;;;;;;2344392;54;20971;-69
2021/04/18 22:25:19;;;;;;;6.43;2.55;;;10.50;56.30;;;;;;2348143;53;20980;-65
2021/04/18 22:27:46;;;;;;;4.53;2.50;;;10.50;56.30;;;;;;2328602;54;20960;-65
2021/04/18 22:30:13;;;;;;;6.97;2.60;;;10.50;56.40;;;;;;2343812;53;20987;-66
2021/04/18 22:32:39;;;;;;;3.78;2.12;;;10.50;56.40;;;;;;2343791;53;20919;-65
2021/04/18 22:35:06;;;;;;;5.07;2.22;;;10.50;56.40;;;;;;2343957;54;20938;-65
2021/04/18 22:37:33;;;;;;;4.00;2.03;;;10.50;56.50;;;;;;2347130;53;20989;-67
2021/04/18 22:40:03;;;;;;;4.93;2.33;;;10.50;56.50;;;;;;2343363;54;21031;-66
2021/04/18 22:42:29;;;;;;;4.40;1.95;;;10.50;56.50;;;;;;2395069;53;20927;-67
2021/04/18 22:44:55;;;;;;;5.70;2.17;;;10.50;56.60;;;;;;2348204;53;20923;-68
2021/04/18 22:47:22;;;;;;;5.57;2.53;;;10.50;56.60;;;;;;2343357;53;20927;-66
2021/04/18 22:49:48;;;;;;;6.03;3.00;;;10.50;56.70;;;;;;2590218;52;20947;-66
2021/04/18 22:52:17;;;;;;;7.30;2.22;;;10.50;56.80;;;;;;2343996;53;20994;-66
2021/04/18 22:54:44;;;;;;;6.53;2.80;;;10.50;56.80;;;;;;2343802;54;20988;-68
2021/04/18 22:57:10;;;;;;;5.90;3.03;;;10.50;56.80;;;;;;2348356;53;21914;-68
2021/04/18 22:59:36;;;;;;;5.43;2.62;;;10.50;56.90;;;;;;2341294;53;21391;-68
2021/04/18 23:02:03;;;;;;;7.05;2.97;;;10.50;56.90;;;;;;2590594;53;21002;-68
2021/04/18 23:04:30;;;;;;;5.60;2.47;;;10.50;56.90;;;;;;2343920;53;21438;-66
2021/04/18 23:06:56;;;;;;;4.57;2.55;;;10.50;56.90;;;;;;2590819;53;20975;-66
2021/04/18 23:09:22;;;;;;;7.40;2.97;;;10.60;57.10;;;;;;2343952;55;20943;-68
2021/04/18 23:11:49;;;;;;;5.55;2.70;;;10.50;57.00;;;;;;2327960;54;21591;-68